Ana Sayfa
METAR-TAF:

METAR-TAF

Havaalanları :

Aydın Çıldır Havalimanı

Aydın, Türkiye

Enlem: 37-48-54N, Boylam: 27-53-21E, yükseklik: 31 m

METAR: eksik

Saat: 23:59 (20:59 UTC)

Tahmin

Rapor saat 13:40 UTC de 7 saat ve 19 dakika önce yapıldı.
Ayın 31'si saat 15 UTC'den ayın 31'si saat 24 UTC'ye kadar geçerli Tahmin
Rüzgar batıdan 12 kt
Görüş mesafesi 10 km veya daha fazla
3000 ft yükseklikte parçalı bulutlu
10000 ft yükseklikte parçalı çok bulutlu
Dönüşüyor
ayın 31'si saat 15 UTC'den ayın 31'si saat 18 UTC'ye kadar
Rüzgar değişken yönden 2 kt
Geçici
ayın 31'si saat 20 UTC'den ayın 31'si saat 24 UTC'ye kadar
hafif sağanak yağmurlar

TAF: LTBD 311340Z 3115/3124 28012KT 9999 SCT030 BKN100 BECMG 3115/3118 VRB02KT TEMPO 3120/3124 -SHRA

4.000'den fazla havaalanı için hava durumu gözlemleri ve tahminleri (METAR ve TAF raporları).

Kullanılabilir istasyonlar harita üzerinde sarı ve kırmızı noktalarla gösterilir.

İstasyonun adını görmek için fareyi noktanın üzerinde gezdirin.

Sonrasında hava gözlem ve tahminlerini görmek için tıklayın.

Haritayı değiştirmek için: yaklaştırmak için siyah artı işaretli yeşil düğmeye ve uzaklaştırmak için de eksi işaretli düğmeye hızla tıklayın; bitişik haritalar için yeşil okları kullanın.


METAR-TAF: